Time;durP1;ratioP1;P1;durP2;ratioP2;P2;SDS_P1;SDS_P2;PMS_P1;PMS_P2;Temp;Humidity;BMP_temperature;BMP_pressure;BME280_temperature;BME280_humidity;BME280_pressure;Samples;Min_cycle;Max_cycle;Signal;HPM_P1;HPM_P2
2021/07/23 00:01:48;;;;;;;12.60;8.83;;;19.70;99.90;;;;;;5098379;28;20414;-63
2021/07/23 00:04:15;;;;;;;8.20;7.50;;;19.70;99.90;;;;;;5100664;28;20475;-64
2021/07/23 00:06:42;;;;;;;12.77;8.47;;;19.70;99.90;;;;;;5100985;28;20654;-63
2021/07/23 00:09:09;;;;;;;9.10;7.23;;;19.60;99.90;;;;;;5100714;28;20405;-64
2021/07/23 00:11:36;;;;;;;12.23;8.63;;;19.40;99.90;;;;;;5105329;28;20496;-65
2021/07/23 00:14:03;;;;;;;10.20;8.27;;;19.40;99.90;;;;;;5103838;28;20484;-64
2021/07/23 00:16:30;;;;;;;13.20;8.77;;;19.50;99.90;;;;;;5104050;28;20687;-64
2021/07/23 00:18:57;;;;;;;11.00;7.40;;;19.50;99.90;;;;;;5102359;28;20413;-63
2021/07/23 00:21:24;;;;;;;16.00;8.67;;;19.60;99.90;;;;;;5104374;28;20817;-65
2021/07/23 00:23:51;;;;;;;10.23;7.87;;;19.40;99.90;;;;;;5103702;28;20460;-65
2021/07/23 00:26:19;;;;;;;13.60;8.20;;;19.30;99.90;;;;;;5102217;28;20406;-64
2021/07/23 00:28:46;;;;;;;10.50;8.10;;;19.40;99.90;;;;;;5101154;28;20439;-64
2021/07/23 00:31:13;;;;;;;11.20;8.70;;;19.30;99.90;;;;;;5102732;28;20422;-64
2021/07/23 00:33:40;;;;;;;10.20;8.60;;;19.20;99.90;;;;;;5104070;28;20415;-65
2021/07/23 00:36:07;;;;;;;10.50;7.63;;;19.20;99.90;;;;;;5105810;28;20442;-64
2021/07/23 00:38:34;;;;;;;8.20;7.00;;;19.10;99.90;;;;;;5106033;28;20652;-64
2021/07/23 00:41:01;;;;;;;9.97;7.13;;;19.10;99.90;;;;;;5102681;28;20445;-64
2021/07/23 00:43:28;;;;;;;9.20;7.17;;;19.10;99.90;;;;;;5099310;28;20453;-65
2021/07/23 00:45:56;;;;;;;16.90;9.80;;;19.20;99.90;;;;;;5095643;28;20414;-64
2021/07/23 00:48:24;;;;;;;11.37;10.00;;;19.20;99.90;;;;;;5100826;28;20417;-65
2021/07/23 00:50:51;;;;;;;17.73;8.80;;;19.20;99.90;;;;;;5100378;28;20443;-64
2021/07/23 00:53:20;;;;;;;12.77;10.77;;;19.20;99.90;;;;;;5102459;28;20772;-64
2021/07/23 00:55:58;;;;;;;10.30;8.87;;;19.20;99.90;;;;;;5102721;28;20499;-63
2021/07/23 00:58:28;;;;;;;9.20;8.10;;;19.20;99.90;;;;;;5097695;28;20675;-64
2021/07/23 01:00:58;;;;;;;9.73;7.97;;;19.20;99.90;;;;;;5100976;28;20735;-64
2021/07/23 01:03:28;;;;;;;15.87;8.00;;;19.30;99.90;;;;;;5100242;28;20533;-64
2021/07/23 01:05:56;;;;;;;9.40;8.20;;;19.40;99.90;;;;;;5100827;28;20460;-64
2021/07/23 01:08:23;;;;;;;12.30;8.60;;;19.40;99.90;;;;;;5101881;28;20410;-63
2021/07/23 01:10:50;;;;;;;13.27;7.97;;;19.40;99.90;;;;;;5097747;28;20750;-64
2021/07/23 01:13:18;;;;;;;12.83;9.00;;;19.40;99.90;;;;;;5100691;28;20469;-64
2021/07/23 01:15:45;;;;;;;12.77;9.70;;;19.40;99.90;;;;;;5099302;28;20438;-63
2021/07/23 01:18:12;;;;;;;11.47;9.00;;;19.40;99.90;;;;;;5104993;28;20563;-64
2021/07/23 01:20:40;;;;;;;13.53;8.50;;;19.40;99.90;;;;;;5102573;28;20435;-64
2021/07/23 01:23:08;;;;;;;10.63;8.40;;;19.40;99.90;;;;;;5103221;28;20449;-64
2021/07/23 01:25:36;;;;;;;10.17;8.03;;;19.40;99.90;;;;;;5105356;28;20505;-64
2021/07/23 01:28:05;;;;;;;12.37;9.23;;;19.40;99.90;;;;;;5108307;28;20409;-63
2021/07/23 01:30:35;;;;;;;10.10;7.80;;;19.50;99.90;;;;;;5102317;28;20417;-64
2021/07/23 01:33:02;;;;;;;9.83;8.80;;;19.50;99.90;;;;;;5096203;28;20623;-64
2021/07/23 01:35:29;;;;;;;11.20;8.97;;;19.50;99.90;;;;;;5103944;28;20479;-63
2021/07/23 01:37:59;;;;;;;14.40;9.00;;;19.50;99.90;;;;;;5100507;28;20479;-63
2021/07/23 01:40:26;;;;;;;12.53;8.30;;;19.50;99.90;;;;;;5099735;28;20420;-64
2021/07/23 01:42:54;;;;;;;11.43;8.60;;;19.30;99.90;;;;;;5101519;28;20756;-64
2021/07/23 01:45:21;;;;;;;11.13;8.87;;;19.40;99.90;;;;;;5097961;28;20722;-64
2021/07/23 01:47:48;;;;;;;10.80;8.37;;;19.40;99.90;;;;;;5101991;28;20420;-65
2021/07/23 01:50:15;;;;;;;9.47;7.90;;;19.40;99.90;;;;;;5099305;28;20435;-63
2021/07/23 01:52:42;;;;;;;13.70;7.60;;;19.50;99.90;;;;;;5100057;28;20443;-64
2021/07/23 01:55:09;;;;;;;12.60;8.00;;;19.50;99.90;;;;;;5096379;28;20790;-64
2021/07/23 01:57:36;;;;;;;12.87;8.80;;;19.60;99.90;;;;;;5100537;28;20688;-64
2021/07/23 02:00:05;;;;;;;10.30;7.57;;;19.50;99.90;;;;;;5100063;28;20808;-64
2021/07/23 02:02:34;;;;;;;9.93;8.30;;;19.40;99.90;;;;;;5094196;28;20439;-64
2021/07/23 02:05:02;;;;;;;14.23;8.87;;;19.50;99.90;;;;;;5097206;28;20512;-63
2021/07/23 02:07:30;;;;;;;10.40;8.33;;;19.50;99.90;;;;;;5100554;28;20413;-64
2021/07/23 02:09:57;;;;;;;9.60;7.47;;;19.20;99.90;;;;;;5101107;28;20416;-64
2021/07/23 02:12:24;;;;;;;12.10;9.10;;;19.20;99.90;;;;;;5096607;28;20482;-64
2021/07/23 02:14:51;;;;;;;11.50;8.37;;;19.00;99.90;;;;;;5096260;28;20418;-64
2021/07/23 02:17:18;;;;;;;8.90;7.87;;;19.00;99.90;;;;;;5099085;28;20433;-65
2021/07/23 02:19:46;;;;;;;17.20;10.50;;;18.90;99.90;;;;;;5074538;28;20915;-64
2021/07/23 02:22:13;;;;;;;9.80;8.80;;;18.90;99.90;;;;;;5100935;28;20776;-65
2021/07/23 02:24:40;;;;;;;11.80;8.50;;;18.80;99.90;;;;;;5095595;28;20509;-64
2021/07/23 02:27:09;;;;;;;9.97;8.53;;;18.90;99.90;;;;;;5101315;28;20701;-64
2021/07/23 02:29:36;;;;;;;13.17;8.00;;;19.10;99.90;;;;;;5097886;28;20460;-64
2021/07/23 02:32:04;;;;;;;11.80;9.10;;;19.10;99.90;;;;;;5105624;28;20416;-63
2021/07/23 02:34:32;;;;;;;10.17;8.57;;;19.10;99.90;;;;;;5093594;28;20415;-64
2021/07/23 02:36:59;;;;;;;9.10;7.73;;;19.10;99.90;;;;;;5098476;28;20412;-64
2021/07/23 02:39:26;;;;;;;10.77;8.90;;;19.00;99.90;;;;;;5102492;28;20417;-64
2021/07/23 02:41:53;;;;;;;11.50;9.00;;;19.00;99.90;;;;;;5108082;28;20634;-65
2021/07/23 02:44:20;;;;;;;11.30;9.50;;;18.80;99.90;;;;;;5103862;28;20474;-64
2021/07/23 02:46:47;;;;;;;11.80;9.20;;;18.80;99.90;;;;;;5105138;28;20479;-64
2021/07/23 02:49:14;;;;;;;15.20;8.27;;;18.70;99.90;;;;;;5099708;28;20455;-64
2021/07/23 02:51:41;;;;;;;11.27;9.43;;;18.80;99.90;;;;;;5081742;28;20438;-64
2021/07/23 02:54:08;;;;;;;13.83;9.70;;;18.90;99.90;;;;;;5099037;28;20740;-63
2021/07/23 02:56:35;;;;;;;17.23;9.80;;;19.00;99.90;;;;;;5102564;28;20522;-64
2021/07/23 02:59:02;;;;;;;12.50;11.17;;;18.90;99.90;;;;;;5104944;28;20446;-63
2021/07/23 03:01:29;;;;;;;12.00;9.23;;;19.00;99.90;;;;;;5102565;28;20438;-64
2021/07/23 03:03:56;;;;;;;12.73;9.60;;;19.00;99.90;;;;;;5101840;28;20421;-64
2021/07/23 03:06:23;;;;;;;11.07;9.20;;;18.90;99.90;;;;;;5099349;28;20589;-64
2021/07/23 03:08:50;;;;;;;12.30;9.60;;;19.00;99.90;;;;;;5102194;28;20446;-65
2021/07/23 03:11:17;;;;;;;13.13;8.37;;;19.10;99.90;;;;;;5099031;28;20578;-64
2021/07/23 03:13:45;;;;;;;14.43;9.80;;;19.00;99.90;;;;;;5099184;28;20493;-64
2021/07/23 03:16:14;;;;;;;13.03;10.23;;;19.10;99.90;;;;;;5104078;28;20449;-64
2021/07/23 03:18:42;;;;;;;9.80;8.33;;;19.10;99.90;;;;;;5102062;28;20460;-64
2021/07/23 03:21:09;;;;;;;11.40;9.00;;;19.20;99.90;;;;;;5104390;28;20422;-64
2021/07/23 03:23:37;;;;;;;12.47;9.70;;;19.30;99.90;;;;;;5103535;28;20508;-65
2021/07/23 03:26:07;;;;;;;9.70;8.70;;;19.30;99.90;;;;;;5099465;28;20525;-64
2021/07/23 03:28:35;;;;;;;22.47;10.43;;;19.40;99.90;;;;;;5097462;28;20461;-63
2021/07/23 03:31:02;;;;;;;12.33;8.90;;;19.40;99.90;;;;;;5104103;28;20446;-65
2021/07/23 03:33:29;;;;;;;9.93;7.93;;;19.40;99.90;;;;;;5099308;28;20436;-63
2021/07/23 03:35:56;;;;;;;13.37;8.60;;;19.40;99.90;;;;;;5106216;28;20475;-64
2021/07/23 03:38:23;;;;;;;10.03;8.60;;;19.40;99.90;;;;;;5101752;28;20441;-64
2021/07/23 03:40:50;;;;;;;11.73;9.40;;;19.50;99.90;;;;;;5101541;28;20417;-64
2021/07/23 03:43:17;;;;;;;13.60;8.40;;;19.50;99.90;;;;;;5102956;28;20465;-63
2021/07/23 03:45:44;;;;;;;10.27;7.83;;;19.50;99.90;;;;;;5103275;28;20486;-64
2021/07/23 03:48:11;;;;;;;10.40;9.20;;;19.50;99.90;;;;;;5103765;28;20421;-64
2021/07/23 03:50:38;;;;;;;9.67;8.67;;;19.60;99.90;;;;;;5104567;28;20511;-64
2021/07/23 03:53:05;;;;;;;8.33;7.43;;;19.60;99.90;;;;;;5086444;28;20455;-64
2021/07/23 03:55:32;;;;;;;12.10;8.37;;;19.60;99.90;;;;;;5088598;28;20453;-64
2021/07/23 03:57:59;;;;;;;10.53;9.07;;;19.70;99.90;;;;;;5102538;28;20470;-63
2021/07/23 04:00:26;;;;;;;10.07;8.87;;;19.70;99.90;;;;;;5104482;28;20458;-64
2021/07/23 04:02:53;;;;;;;12.27;9.00;;;19.80;99.90;;;;;;5106706;28;20825;-64
2021/07/23 04:05:21;;;;;;;9.63;8.33;;;19.80;99.90;;;;;;5103349;28;20486;-64
2021/07/23 04:07:48;;;;;;;11.73;8.27;;;19.80;99.90;;;;;;5102408;28;20458;-65
2021/07/23 04:10:15;;;;;;;13.10;10.27;;;19.80;99.90;;;;;;5101866;28;20451;-64
2021/07/23 04:12:42;;;;;;;13.57;8.60;;;19.90;99.90;;;;;;5104742;28;20479;-64
2021/07/23 04:15:10;;;;;;;18.00;10.17;;;19.90;99.90;;;;;;5100503;28;20461;-64
2021/07/23 04:17:37;;;;;;;13.90;8.40;;;20.00;99.90;;;;;;5101217;28;20458;-64
2021/07/23 04:20:05;;;;;;;11.70;9.77;;;20.00;99.90;;;;;;5100682;28;20426;-64
2021/07/23 04:22:33;;;;;;;12.57;9.07;;;20.10;99.90;;;;;;5100083;28;20446;-64
2021/07/23 04:25:01;;;;;;;9.03;8.10;;;20.10;99.90;;;;;;5099338;28;20483;-64
2021/07/23 04:27:28;;;;;;;10.73;8.13;;;20.30;99.90;;;;;;5103325;28;20405;-64
2021/07/23 04:29:55;;;;;;;12.60;9.90;;;20.40;99.90;;;;;;5100486;28;20815;-64
2021/07/23 04:32:22;;;;;;;11.83;9.27;;;20.50;99.90;;;;;;5101154;28;20405;-65
2021/07/23 04:34:49;;;;;;;9.13;8.13;;;20.60;99.90;;;;;;5097334;28;20480;-65
2021/07/23 04:37:16;;;;;;;13.07;9.47;;;20.70;99.90;;;;;;5097554;28;20418;-64
2021/07/23 04:39:44;;;;;;;12.37;8.87;;;20.80;99.90;;;;;;5097436;28;20452;-64
2021/07/23 04:42:11;;;;;;;15.87;9.50;;;20.80;99.90;;;;;;5102132;28;20405;-65
2021/07/23 04:44:38;;;;;;;12.10;8.77;;;20.90;99.90;;;;;;5101557;28;20409;-64
2021/07/23 04:47:05;;;;;;;13.83;9.60;;;21.10;99.90;;;;;;5100727;28;20744;-64
2021/07/23 04:49:32;;;;;;;10.57;9.47;;;21.20;99.90;;;;;;5099684;28;20488;-64
2021/07/23 04:51:59;;;;;;;10.40;8.07;;;21.30;99.90;;;;;;5106239;28;20445;-65
2021/07/23 04:54:26;;;;;;;13.37;8.40;;;21.40;99.90;;;;;;5103482;28;20626;-64
2021/07/23 04:56:54;;;;;;;12.57;9.03;;;21.40;99.90;;;;;;5103067;28;20501;-64
2021/07/23 04:59:21;;;;;;;11.37;8.13;;;21.10;99.90;;;;;;5098153;28;20414;-64
2021/07/23 05:01:48;;;;;;;8.73;7.53;;;21.20;99.90;;;;;;5101091;28;20447;-64
2021/07/23 05:04:16;;;;;;;11.33;9.37;;;21.40;99.90;;;;;;5102529;28;20437;-64
2021/07/23 05:06:43;;;;;;;11.30;9.67;;;21.60;99.90;;;;;;5098964;28;20454;-64
2021/07/23 05:09:10;;;;;;;9.70;8.70;;;21.80;99.90;;;;;;5107609;28;20443;-64
2021/07/23 05:11:37;;;;;;;9.93;8.63;;;21.90;99.90;;;;;;5102154;28;20444;-64
2021/07/23 05:14:08;;;;;;;11.93;8.30;;;22.00;99.90;;;;;;5100382;28;20431;-64
2021/07/23 05:16:35;;;;;;;12.93;8.60;;;22.30;99.90;;;;;;5100196;28;20455;-64
2021/07/23 05:19:05;;;;;;;11.33;8.37;;;22.40;99.90;;;;;;5098994;28;20472;-64
2021/07/23 05:21:33;;;;;;;16.70;10.27;;;22.60;99.90;;;;;;5098757;28;20415;-64
2021/07/23 05:24:03;;;;;;;12.53;10.00;;;22.70;99.90;;;;;;5103280;28;20420;-65
2021/07/23 05:26:35;;;;;;;13.13;10.60;;;22.70;99.90;;;;;;5102240;28;20465;-64
2021/07/23 05:29:07;;;;;;;11.93;10.70;;;22.70;99.90;;;;;;5098967;28;20827;-64
2021/07/23 05:31:35;;;;;;;19.73;10.70;;;22.90;99.90;;;;;;5098182;28;20455;-65
2021/07/23 05:34:03;;;;;;;14.27;10.20;;;23.20;99.90;;;;;;5096528;28;20477;-65
2021/07/23 05:36:30;;;;;;;10.60;9.57;;;23.30;99.90;;;;;;5101473;28;20408;-64
2021/07/23 05:38:57;;;;;;;11.13;8.90;;;23.50;99.90;;;;;;5096264;28;20651;-66
2021/07/23 05:41:24;;;;;;;13.50;11.53;;;23.60;99.90;;;;;;5079161;28;20459;-65
2021/07/23 05:43:51;;;;;;;10.50;9.50;;;23.60;99.90;;;;;;5102402;28;20438;-65
2021/07/23 05:46:18;;;;;;;11.23;9.77;;;23.60;99.90;;;;;;5100668;28;20482;-64
2021/07/23 05:48:45;;;;;;;11.30;10.10;;;23.60;99.90;;;;;;5098472;28;20413;-65
2021/07/23 05:51:12;;;;;;;11.53;9.93;;;23.70;99.90;;;;;;5098922;28;20473;-65
2021/07/23 05:53:39;;;;;;;11.23;10.10;;;23.90;99.90;;;;;;5105801;28;20420;-64
2021/07/23 05:56:07;;;;;;;11.17;9.97;;;24.00;99.90;;;;;;5104517;28;20734;-64
2021/07/23 05:58:35;;;;;;;12.37;11.03;;;24.30;99.90;;;;;;5099835;28;20523;-65
2021/07/23 06:01:06;;;;;;;10.70;9.80;;;24.60;99.90;;;;;;5100329;28;20414;-64
2021/07/23 06:03:37;;;;;;;10.40;9.47;;;24.60;99.90;;;;;;5099198;28;20626;-65
2021/07/23 06:06:04;;;;;;;14.47;10.10;;;24.60;99.90;;;;;;5098704;28;20490;-65
2021/07/23 06:08:52;;;;;;;12.03;10.20;;;25.00;99.90;;;;;;5101972;28;20594;-65
2021/07/23 06:11:19;;;;;;;10.10;9.10;;;25.10;99.90;;;;;;5082514;28;20405;-63
2021/07/23 06:13:46;;;;;;;10.47;9.47;;;25.30;99.90;;;;;;5103685;28;20441;-62
2021/07/23 06:16:13;;;;;;;17.40;10.30;;;25.30;99.90;;;;;;5101622;28;20431;-64
2021/07/23 06:18:41;;;;;;;12.47;10.80;;;25.30;99.90;;;;;;5095881;28;20602;-65
2021/07/23 06:21:08;;;;;;;12.83;10.73;;;25.50;99.90;;;;;;5103029;28;20408;-64
2021/07/23 06:23:36;;;;;;;11.70;9.93;;;25.80;99.90;;;;;;5096894;28;20435;-65
2021/07/23 06:26:04;;;;;;;13.43;11.87;;;25.90;99.90;;;;;;5101220;28;21086;-65
2021/07/23 06:28:31;;;;;;;13.93;10.70;;;26.10;99.80;;;;;;5100553;28;20773;-65
2021/07/23 06:31:00;;;;;;;11.80;10.60;;;26.00;99.90;;;;;;5098940;28;20758;-65
2021/07/23 06:33:27;;;;;;;13.03;10.27;;;25.90;99.90;;;;;;5103340;28;20496;-65
2021/07/23 06:35:54;;;;;;;15.53;10.87;;;26.20;99.80;;;;;;5096209;28;20489;-64
2021/07/23 06:38:21;;;;;;;13.30;9.87;;;26.70;99.10;;;;;;5096203;28;20461;-65
2021/07/23 06:40:48;;;;;;;21.33;11.67;;;26.80;98.70;;;;;;5102098;28;20975;-64
2021/07/23 06:43:16;;;;;;;13.73;10.57;;;27.20;97.50;;;;;;5097137;28;20447;-64
2021/07/23 06:45:53;;;;;;;15.73;12.33;;;27.50;96.80;;;;;;5105011;28;20503;-64
2021/07/23 06:48:20;;;;;;;13.13;11.83;;;27.80;95.60;;;;;;5098035;28;20439;-64
2021/07/23 06:50:49;;;;;;;14.33;11.80;;;27.80;95.80;;;;;;5098688;28;20445;-64
2021/07/23 06:53:17;;;;;;;12.83;11.53;;;27.90;95.60;;;;;;5095052;28;20639;-64
2021/07/23 06:55:44;;;;;;;12.47;11.03;;;27.80;94.30;;;;;;5100912;28;20434;-65
2021/07/23 06:58:12;;;;;;;11.53;10.53;;;28.30;93.20;;;;;;5099882;28;20487;-64
2021/07/23 07:00:39;;;;;;;12.10;11.13;;;28.90;92.00;;;;;;5097674;28;20526;-63
2021/07/23 07:03:07;;;;;;;12.00;11.03;;;29.10;91.60;;;;;;5096715;28;20446;-64
2021/07/23 07:05:34;;;;;;;13.27;12.30;;;29.00;91.60;;;;;;5101309;28;20478;-62
2021/07/23 07:08:02;;;;;;;13.07;10.53;;;30.00;90.10;;;;;;5101206;28;20484;-64
2021/07/23 07:10:29;;;;;;;11.97;11.10;;;31.20;87.00;;;;;;5099685;28;20528;-65
2021/07/23 07:12:57;;;;;;;12.33;11.37;;;30.60;86.70;;;;;;5100057;28;20699;-64
2021/07/23 07:15:25;;;;;;;13.23;12.23;;;30.80;86.30;;;;;;5099010;28;20439;-65
2021/07/23 07:17:59;;;;;;;13.33;12.20;;;31.00;85.60;;;;;;5103922;28;20821;-64
2021/07/23 07:20:27;;;;;;;13.00;12.00;;;31.30;83.90;;;;;;5100601;28;20466;-63
2021/07/23 07:22:55;;;;;;;13.90;12.90;;;30.50;85.20;;;;;;5099769;28;20459;-64
2021/07/23 07:25:24;;;;;;;13.10;12.10;;;30.60;84.20;;;;;;5099620;28;20439;-63
2021/07/23 07:27:53;;;;;;;13.83;12.63;;;30.60;84.50;;;;;;5102393;28;20623;-63
2021/07/23 07:30:21;;;;;;;13.70;12.60;;;30.60;84.90;;;;;;5102773;28;20440;-65
2021/07/23 07:32:48;;;;;;;13.17;12.13;;;30.90;83.70;;;;;;5099334;28;20440;-64
2021/07/23 07:35:16;;;;;;;15.93;14.63;;;31.10;84.50;;;;;;5099403;28;20500;-64
2021/07/23 07:37:43;;;;;;;12.93;11.93;;;31.20;83.30;;;;;;5105271;28;20519;-63
2021/07/23 07:40:11;;;;;;;15.03;12.80;;;31.50;81.90;;;;;;5102045;28;20498;-64
2021/07/23 07:42:38;;;;;;;11.97;10.77;;;31.60;81.90;;;;;;5101837;28;20440;-64
2021/07/23 07:45:05;;;;;;;12.23;11.23;;;31.00;81.20;;;;;;5103917;28;20506;-63
2021/07/23 07:47:33;;;;;;;11.77;10.47;;;30.60;80.90;;;;;;5099420;28;20479;-64
2021/07/23 07:50:00;;;;;;;12.87;11.83;;;30.60;81.30;;;;;;5080795;28;20502;-64
2021/07/23 07:52:27;;;;;;;12.73;11.83;;;32.30;76.50;;;;;;5102664;28;20431;-64
2021/07/23 07:54:54;;;;;;;12.43;11.43;;;34.50;72.60;;;;;;5102693;28;20664;-65
2021/07/23 07:57:22;;;;;;;12.40;11.60;;;36.50;65.50;;;;;;5102942;28;20729;-65
2021/07/23 07:59:50;;;;;;;13.67;12.67;;;36.70;63.20;;;;;;5102329;28;20718;-64
2021/07/23 08:02:18;;;;;;;12.90;11.90;;;36.50;61.70;;;;;;5106947;28;20785;-64
2021/07/23 08:04:46;;;;;;;12.20;11.03;;;35.90;62.60;;;;;;5103734;28;20902;-63
2021/07/23 08:07:18;;;;;;;12.50;11.87;;;35.20;61.50;;;;;;5095701;28;20660;-66
2021/07/23 08:09:53;;;;;;;13.03;12.13;;;35.70;61.50;;;;;;5093249;28;20571;-64
2021/07/23 08:12:23;;;;;;;13.47;12.57;;;37.10;59.80;;;;;;5100614;28;20457;-64
2021/07/23 08:14:51;;;;;;;12.70;11.73;;;37.90;57.30;;;;;;5106966;28;20448;-65
2021/07/23 08:17:19;;;;;;;12.23;11.53;;;38.50;55.40;;;;;;5100671;28;20451;-64
2021/07/23 08:19:46;;;;;;;12.67;12.00;;;39.10;53.30;;;;;;5097143;28;20440;-64
2021/07/23 08:22:13;;;;;;;13.10;12.40;;;38.80;51.50;;;;;;5101136;28;20495;-65
2021/07/23 08:24:41;;;;;;;14.63;13.60;;;39.30;50.80;;;;;;5099073;28;20673;-65
2021/07/23 08:27:08;;;;;;;12.13;11.33;;;41.50;47.80;;;;;;5100033;28;20490;-62
2021/07/23 08:29:35;;;;;;;12.83;11.70;;;41.00;46.90;;;;;;5100698;28;20504;-64
2021/07/23 08:32:10;;;;;;;13.30;12.50;;;39.50;48.40;;;;;;5080665;28;20443;-65
2021/07/23 08:34:38;;;;;;;11.60;11.00;;;39.00;47.90;;;;;;5104487;28;20503;-65
2021/07/23 08:37:05;;;;;;;13.10;12.30;;;39.00;48.20;;;;;;5097650;28;20451;-65
2021/07/23 08:39:33;;;;;;;13.70;12.90;;;38.60;48.00;;;;;;5097895;28;20499;-64
2021/07/23 08:42:24;;;;;;;13.13;12.37;;;38.00;49.40;;;;;;5093870;28;20442;-63
2021/07/23 08:44:52;;;;;;;12.97;12.17;;;38.20;50.10;;;;;;5106459;28;20807;-64
2021/07/23 08:47:20;;;;;;;14.20;13.30;;;38.70;48.80;;;;;;5101574;28;20482;-65
2021/07/23 08:49:48;;;;;;;12.10;11.13;;;38.50;48.60;;;;;;5098253;28;20450;-63
2021/07/23 08:52:15;;;;;;;12.57;11.67;;;37.50;49.60;;;;;;5096999;28;20724;-65
2021/07/23 08:54:44;;;;;;;13.47;12.60;;;39.40;47.80;;;;;;5098561;28;20488;-65
2021/07/23 08:57:11;;;;;;;13.63;12.83;;;40.20;45.10;;;;;;5097485;28;20443;-65
2021/07/23 08:59:38;;;;;;;11.90;11.30;;;39.90;45.10;;;;;;5100302;28;20548;-65
2021/07/23 09:02:06;;;;;;;14.00;13.20;;;40.60;44.80;;;;;;5099699;28;20435;-65
2021/07/23 09:04:36;;;;;;;12.77;12.13;;;41.50;43.90;;;;;;5075516;28;20439;-66
2021/07/23 09:07:15;;;;;;;12.17;11.47;;;42.70;43.00;;;;;;5097392;28;20475;-66
2021/07/23 09:09:42;;;;;;;13.03;12.07;;;43.10;41.50;;;;;;5094394;28;20431;-64
2021/07/23 09:12:10;;;;;;;12.07;11.47;;;43.40;40.30;;;;;;5098048;28;20520;-65
2021/07/23 09:14:37;;;;;;;13.50;12.80;;;42.80;41.20;;;;;;5098359;28;20810;-66
2021/07/23 09:17:04;;;;;;;13.87;13.00;;;42.90;41.10;;;;;;5084103;28;20462;-64
2021/07/23 09:19:32;;;;;;;12.73;12.13;;;43.60;40.10;;;;;;5096571;28;20442;-69
2021/07/23 09:21:59;;;;;;;12.83;12.07;;;42.90;38.40;;;;;;5104349;28;20503;-65
2021/07/23 09:24:48;;;;;;;12.70;12.10;;;41.80;38.40;;;;;;5090551;28;20506;-65
2021/07/23 09:27:36;;;;;;;13.70;12.90;;;39.40;41.70;;;;;;5089031;28;20466;-65
2021/07/23 09:30:09;;;;;;;13.67;12.87;;;38.50;43.60;;;;;;5083401;28;20447;-65
2021/07/23 09:32:37;;;;;;;13.70;12.70;;;38.80;42.70;;;;;;5097510;28;20450;-64
2021/07/23 09:35:13;;;;;;;11.90;11.27;;;39.40;41.50;;;;;;5085267;28;20442;-63
2021/07/23 09:37:59;;;;;;;13.03;12.23;;;37.70;43.30;;;;;;5099779;28;20512;-63
2021/07/23 09:40:40;;;;;;;12.53;11.57;;;35.00;47.50;;;;;;5085812;28;20446;-64
2021/07/23 09:43:07;;;;;;;11.90;11.00;;;32.00;51.90;;;;;;5105400;28;20667;-66
2021/07/23 09:45:35;;;;;;;11.47;10.67;;;30.40;53.90;;;;;;5095712;28;20483;-64
2021/07/23 09:48:12;;;;;;;12.30;11.40;;;29.60;56.30;;;;;;5095382;28;20491;-65
2021/07/23 09:50:44;;;;;;;12.23;11.43;;;29.20;56.90;;;;;;5095828;28;20504;-64
2021/07/23 09:53:13;;;;;;;13.20;12.13;;;28.90;58.40;;;;;;5078453;28;20443;-63
2021/07/23 09:55:43;;;;;;;12.40;11.40;;;28.80;59.00;;;;;;5094691;28;20735;-64
2021/07/23 09:58:11;;;;;;;11.57;10.77;;;28.00;58.90;;;;;;5097165;28;20446;-65
2021/07/23 10:00:42;;;;;;;11.43;10.53;;;27.60;60.10;;;;;;5087772;28;20450;-65
2021/07/23 10:03:13;;;;;;;12.70;11.80;;;27.70;60.90;;;;;;5096621;28;20443;-65
2021/07/23 10:06:01;;;;;;;11.90;11.10;;;27.80;60.00;;;;;;5098524;28;20447;-64
2021/07/23 10:08:33;;;;;;;13.43;12.23;;;28.10;60.50;;;;;;5097028;28;20434;-65
2021/07/23 10:11:05;;;;;;;13.27;12.20;;;28.50;58.70;;;;;;5096241;28;20438;-65
2021/07/23 10:13:37;;;;;;;12.30;11.43;;;28.70;57.70;;;;;;5097412;28;20496;-65
2021/07/23 10:16:09;;;;;;;12.30;11.50;;;29.00;57.70;;;;;;5097510;28;20435;-65
2021/07/23 10:18:38;;;;;;;12.40;11.50;;;28.70;59.40;;;;;;5099661;28;20502;-66
2021/07/23 10:21:06;;;;;;;12.17;11.27;;;28.50;61.10;;;;;;5078318;28;20438;-66
2021/07/23 10:23:35;;;;;;;11.97;11.17;;;28.40;60.90;;;;;;5086716;28;20443;-66
2021/07/23 10:26:03;;;;;;;13.27;12.27;;;28.30;59.60;;;;;;5097083;28;20525;-64
2021/07/23 10:28:54;;;;;;;12.80;11.67;;;28.50;60.30;;;;;;5104621;28;20479;-64
2021/07/23 10:31:32;;;;;;;11.63;10.60;;;28.60;60.10;;;;;;5101764;28;20438;-64
2021/07/23 10:34:01;;;;;;;12.20;11.10;;;28.90;59.80;;;;;;5093785;28;20442;-66
2021/07/23 10:36:30;;;;;;;12.33;11.50;;;29.40;59.60;;;;;;5084475;28;20446;-65
2021/07/23 10:39:06;;;;;;;12.20;11.30;;;29.40;58.40;;;;;;5098699;28;20581;-63
2021/07/23 10:41:59;;;;;;;13.70;12.33;;;29.50;57.10;;;;;;5096362;28;20439;-64
2021/07/23 10:44:26;;;;;;;10.80;10.10;;;29.10;58.80;;;;;;5055777;28;20435;-64
2021/07/23 10:47:00;;;;;;;11.57;10.67;;;28.90;57.50;;;;;;5092829;28;20505;-63
2021/07/23 10:49:27;;;;;;;11.17;10.47;;;28.70;57.90;;;;;;5096600;28;20458;-65
2021/07/23 10:51:55;;;;;;;11.27;10.40;;;28.90;57.60;;;;;;5103799;28;20448;-64
2021/07/23 10:54:23;;;;;;;11.43;10.50;;;29.10;58.40;;;;;;5104528;28;20467;-65
2021/07/23 10:57:02;;;;;;;11.23;10.53;;;29.50;56.70;;;;;;5095848;28;20499;-66
2021/07/23 10:59:41;;;;;;;13.00;11.90;;;29.80;56.70;;;;;;5093064;28;20790;-65
2021/07/23 11:02:31;;;;;;;11.77;10.87;;;30.20;56.40;;;;;;5097847;28;20438;-66
2021/07/23 11:05:06;;;;;;;11.70;10.87;;;30.40;56.90;;;;;;5110972;28;20457;-64
2021/07/23 11:07:35;;;;;;;12.40;11.50;;;30.20;57.50;;;;;;5105496;28;20866;-65
2021/07/23 11:10:03;;;;;;;12.90;11.67;;;30.20;57.00;;;;;;5099989;28;20471;-65
2021/07/23 11:12:39;;;;;;;11.33;10.57;;;30.10;56.90;;;;;;5097185;28;20502;-65
2021/07/23 11:15:09;;;;;;;12.23;11.07;;;30.00;57.60;;;;;;5100626;28;20491;-65
2021/07/23 11:17:56;;;;;;;11.40;10.60;;;29.00;59.20;;;;;;5096588;28;20725;-66
2021/07/23 11:20:29;;;;;;;10.57;9.67;;;28.90;59.30;;;;;;5104599;28;20819;-65
2021/07/23 11:22:56;;;;;;;12.83;11.83;;;28.90;59.50;;;;;;5101781;28;20455;-63
2021/07/23 11:25:23;;;;;;;11.60;10.80;;;28.60;59.00;;;;;;5104448;28;20644;-63
2021/07/23 11:27:52;;;;;;;12.63;11.63;;;28.30;60.20;;;;;;5100580;28;20535;-64
2021/07/23 11:30:21;;;;;;;14.13;10.87;;;28.20;61.00;;;;;;5100309;28;20652;-63
2021/07/23 11:32:50;;;;;;;11.43;10.53;;;27.90;61.80;;;;;;5104290;28;20416;-66
2021/07/23 11:35:17;;;;;;;11.63;10.73;;;27.80;63.20;;;;;;5085944;28;20418;-64
2021/07/23 11:37:46;;;;;;;11.27;10.47;;;28.10;63.20;;;;;;5103739;28;20457;-63
2021/07/23 11:40:18;;;;;;;10.93;10.13;;;27.90;61.30;;;;;;5099625;28;20473;-64
2021/07/23 11:42:50;;;;;;;12.43;11.43;;;27.80;62.70;;;;;;5113814;28;20444;-64
2021/07/23 11:45:20;;;;;;;11.20;10.20;;;28.00;61.20;;;;;;5098521;28;20443;-65
2021/07/23 11:47:49;;;;;;;17.27;12.40;;;28.30;60.40;;;;;;5113407;28;20481;-66
2021/07/23 11:50:18;;;;;;;12.13;11.03;;;28.70;60.20;;;;;;5097100;28;20431;-64
2021/07/23 11:52:47;;;;;;;11.57;10.67;;;28.40;60.70;;;;;;5092036;28;20450;-66
2021/07/23 11:55:16;;;;;;;13.17;11.77;;;28.30;60.00;;;;;;5093789;28;20439;-65
2021/07/23 11:57:47;;;;;;;12.37;11.37;;;28.10;60.40;;;;;;5100007;28;20450;-64
2021/07/23 12:00:17;;;;;;;13.83;10.33;;;28.10;60.10;;;;;;5099205;28;20762;-64
2021/07/23 12:02:44;;;;;;;13.63;11.40;;;28.50;60.80;;;;;;5102606;28;20725;-65
2021/07/23 12:05:13;;;;;;;11.30;10.30;;;28.90;59.60;;;;;;5109404;28;20458;-65
2021/07/23 12:07:41;;;;;;;11.20;10.23;;;29.00;59.60;;;;;;5103226;28;20474;-64
2021/07/23 12:10:13;;;;;;;11.70;10.60;;;29.00;60.80;;;;;;5111651;28;20513;-64
2021/07/23 12:12:42;;;;;;;11.67;10.67;;;29.10;61.20;;;;;;5100654;28;20462;-63
2021/07/23 12:15:11;;;;;;;12.10;11.10;;;28.50;59.20;;;;;;5101873;28;20463;-65
2021/07/23 12:17:44;;;;;;;11.93;10.97;;;28.40;60.10;;;;;;5077698;28;20473;-64
2021/07/23 12:20:14;;;;;;;10.90;9.90;;;28.30;60.50;;;;;;5109185;28;20450;-63
2021/07/23 12:22:54;;;;;;;10.80;9.80;;;28.10;62.00;;;;;;5095469;28;20801;-63
2021/07/23 12:25:21;;;;;;;11.00;10.20;;;28.10;62.20;;;;;;5109363;28;20430;-64
2021/07/23 12:28:14;;;;;;;12.63;11.73;;;28.10;62.00;;;;;;5100367;28;20655;-64
2021/07/23 12:30:43;;;;;;;11.77;10.67;;;27.80;62.50;;;;;;5097426;28;20431;-64
2021/07/23 12:33:23;;;;;;;11.47;10.50;;;27.80;62.50;;;;;;5109579;28;20714;-64
2021/07/23 12:35:57;;;;;;;11.53;10.70;;;27.70;62.60;;;;;;5109739;28;20436;-65
2021/07/23 12:38:26;;;;;;;11.60;10.70;;;27.90;64.30;;;;;;5099056;28;20425;-65
2021/07/23 12:40:57;;;;;;;11.07;10.27;;;28.30;64.20;;;;;;5099474;28;20434;-64
2021/07/23 12:43:24;;;;;;;10.30;9.60;;;29.00;62.80;;;;;;5107696;28;20690;-65